sensor_id;sensor_type;location;lat;lon;timestamp;P1;durP1;ratioP1;P2;durP2;ratioP2
50161;SDS011;36061;48.116;11.612;2022-07-24T00:00:25;8.70;;;6.87;;
50161;SDS011;36061;48.116;11.612;2022-07-24T00:02:51;9.27;;;7.47;;
50161;SDS011;36061;48.116;11.612;2022-07-24T00:05:17;8.20;;;6.70;;
50161;SDS011;36061;48.116;11.612;2022-07-24T00:07:43;9.77;;;7.00;;
50161;SDS011;36061;48.116;11.612;2022-07-24T00:10:09;9.17;;;7.47;;
50161;SDS011;36061;48.116;11.612;2022-07-24T00:12:35;10.23;;;7.43;;
50161;SDS011;36061;48.116;11.612;2022-07-24T00:15:02;8.27;;;6.87;;
50161;SDS011;36061;48.116;11.612;2022-07-24T00:17:29;9.00;;;6.83;;
50161;SDS011;36061;48.116;11.612;2022-07-24T00:19:54;7.43;;;6.67;;
50161;SDS011;36061;48.116;11.612;2022-07-24T00:22:20;8.90;;;7.73;;
50161;SDS011;36061;48.116;11.612;2022-07-24T00:24:46;10.10;;;8.37;;
50161;SDS011;36061;48.116;11.612;2022-07-24T00:27:12;9.50;;;7.37;;
50161;SDS011;36061;48.116;11.612;2022-07-24T00:29:37;7.07;;;6.37;;
50161;SDS011;36061;48.116;11.612;2022-07-24T00:32:03;7.87;;;6.83;;
50161;SDS011;36061;48.116;11.612;2022-07-24T00:34:29;7.23;;;6.47;;
50161;SDS011;36061;48.116;11.612;2022-07-24T00:36:55;9.47;;;7.10;;
50161;SDS011;36061;48.116;11.612;2022-07-24T00:39:21;8.83;;;7.00;;
50161;SDS011;36061;48.116;11.612;2022-07-24T00:41:47;8.20;;;7.10;;
50161;SDS011;36061;48.116;11.612;2022-07-24T00:44:14;8.47;;;7.30;;
50161;SDS011;36061;48.116;11.612;2022-07-24T00:46:42;9.07;;;8.07;;
50161;SDS011;36061;48.116;11.612;2022-07-24T00:49:10;8.37;;;6.90;;
50161;SDS011;36061;48.116;11.612;2022-07-24T00:51:37;8.43;;;7.10;;
50161;SDS011;36061;48.116;11.612;2022-07-24T00:54:06;10.20;;;7.37;;
50161;SDS011;36061;48.116;11.612;2022-07-24T00:56:33;8.60;;;7.10;;
50161;SDS011;36061;48.116;11.612;2022-07-24T00:59:00;9.07;;;7.07;;
50161;SDS011;36061;48.116;11.612;2022-07-24T01:01:26;9.60;;;8.20;;
50161;SDS011;36061;48.116;11.612;2022-07-24T01:03:53;8.57;;;7.67;;
50161;SDS011;36061;48.116;11.612;2022-07-24T01:06:19;10.73;;;7.70;;
50161;SDS011;36061;48.116;11.612;2022-07-24T01:08:45;8.70;;;7.20;;
50161;SDS011;36061;48.116;11.612;2022-07-24T01:11:11;8.53;;;7.23;;
50161;SDS011;36061;48.116;11.612;2022-07-24T01:13:38;7.70;;;7.00;;
50161;SDS011;36061;48.116;11.612;2022-07-24T01:16:05;11.20;;;6.97;;
50161;SDS011;36061;48.116;11.612;2022-07-24T01:18:31;8.23;;;7.03;;
50161;SDS011;36061;48.116;11.612;2022-07-24T01:20:57;8.50;;;7.43;;
50161;SDS011;36061;48.116;11.612;2022-07-24T01:23:23;10.27;;;7.17;;
50161;SDS011;36061;48.116;11.612;2022-07-24T01:25:49;8.07;;;6.77;;
50161;SDS011;36061;48.116;11.612;2022-07-24T01:28:16;8.80;;;7.00;;
50161;SDS011;36061;48.116;11.612;2022-07-24T01:30:42;8.33;;;6.53;;
50161;SDS011;36061;48.116;11.612;2022-07-24T01:33:08;8.07;;;6.70;;
50161;SDS011;36061;48.116;11.612;2022-07-24T01:35:34;8.93;;;6.67;;
50161;SDS011;36061;48.116;11.612;2022-07-24T01:38:00;9.10;;;7.10;;
50161;SDS011;36061;48.116;11.612;2022-07-24T01:40:26;9.13;;;7.03;;
50161;SDS011;36061;48.116;11.612;2022-07-24T01:42:52;9.20;;;7.07;;
50161;SDS011;36061;48.116;11.612;2022-07-24T01:45:18;8.27;;;7.07;;
50161;SDS011;36061;48.116;11.612;2022-07-24T01:47:44;8.20;;;6.50;;
50161;SDS011;36061;48.116;11.612;2022-07-24T01:50:11;9.80;;;8.10;;
50161;SDS011;36061;48.116;11.612;2022-07-24T01:52:37;7.57;;;6.10;;
50161;SDS011;36061;48.116;11.612;2022-07-24T01:55:03;7.33;;;6.57;;
50161;SDS011;36061;48.116;11.612;2022-07-24T01:57:30;7.53;;;6.77;;
50161;SDS011;36061;48.116;11.612;2022-07-24T01:59:57;7.67;;;6.33;;
50161;SDS011;36061;48.116;11.612;2022-07-24T02:02:23;8.43;;;6.93;;
50161;SDS011;36061;48.116;11.612;2022-07-24T02:04:48;7.70;;;6.87;;
50161;SDS011;36061;48.116;11.612;2022-07-24T02:07:14;7.57;;;6.70;;
50161;SDS011;36061;48.116;11.612;2022-07-24T02:09:40;9.03;;;6.67;;
50161;SDS011;36061;48.116;11.612;2022-07-24T02:12:06;7.63;;;6.93;;
50161;SDS011;36061;48.116;11.612;2022-07-24T02:14:32;8.13;;;7.30;;
50161;SDS011;36061;48.116;11.612;2022-07-24T02:16:58;7.40;;;6.60;;
50161;SDS011;36061;48.116;11.612;2022-07-24T02:19:23;9.57;;;7.47;;
50161;SDS011;36061;48.116;11.612;2022-07-24T02:21:49;7.63;;;6.83;;
50161;SDS011;36061;48.116;11.612;2022-07-24T02:24:15;7.17;;;6.33;;
50161;SDS011;36061;48.116;11.612;2022-07-24T02:26:41;7.23;;;6.50;;
50161;SDS011;36061;48.116;11.612;2022-07-24T02:29:07;6.87;;;6.13;;
50161;SDS011;36061;48.116;11.612;2022-07-24T02:31:32;8.07;;;7.07;;
50161;SDS011;36061;48.116;11.612;2022-07-24T02:33:58;8.97;;;6.90;;
50161;SDS011;36061;48.116;11.612;2022-07-24T02:36:24;9.43;;;7.27;;
50161;SDS011;36061;48.116;11.612;2022-07-24T02:38:50;8.10;;;7.10;;
50161;SDS011;36061;48.116;11.612;2022-07-24T02:41:16;7.63;;;6.80;;
50161;SDS011;36061;48.116;11.612;2022-07-24T02:43:42;8.63;;;6.90;;
50161;SDS011;36061;48.116;11.612;2022-07-24T02:46:08;7.20;;;6.37;;
50161;SDS011;36061;48.116;11.612;2022-07-24T02:48:34;7.30;;;6.57;;
50161;SDS011;36061;48.116;11.612;2022-07-24T02:51:00;8.53;;;7.33;;
50161;SDS011;36061;48.116;11.612;2022-07-24T02:53:25;9.60;;;7.07;;
50161;SDS011;36061;48.116;11.612;2022-07-24T02:55:51;9.33;;;7.27;;
50161;SDS011;36061;48.116;11.612;2022-07-24T02:58:17;7.60;;;6.80;;
50161;SDS011;36061;48.116;11.612;2022-07-24T03:00:43;9.43;;;7.00;;
50161;SDS011;36061;48.116;11.612;2022-07-24T03:03:09;8.73;;;7.67;;
50161;SDS011;36061;48.116;11.612;2022-07-24T03:05:34;8.70;;;7.10;;
50161;SDS011;36061;48.116;11.612;2022-07-24T03:08:00;10.17;;;7.90;;
50161;SDS011;36061;48.116;11.612;2022-07-24T03:10:26;7.70;;;6.90;;
50161;SDS011;36061;48.116;11.612;2022-07-24T03:12:52;9.37;;;8.00;;
50161;SDS011;36061;48.116;11.612;2022-07-24T03:15:18;8.27;;;6.87;;
50161;SDS011;36061;48.116;11.612;2022-07-24T03:17:50;8.60;;;7.37;;
50161;SDS011;36061;48.116;11.612;2022-07-24T03:20:18;10.53;;;7.17;;
50161;SDS011;36061;48.116;11.612;2022-07-24T03:22:45;8.10;;;7.23;;
50161;SDS011;36061;48.116;11.612;2022-07-24T03:25:11;9.13;;;7.27;;
50161;SDS011;36061;48.116;11.612;2022-07-24T03:27:37;8.20;;;7.13;;
50161;SDS011;36061;48.116;11.612;2022-07-24T03:30:04;8.17;;;7.20;;
50161;SDS011;36061;48.116;11.612;2022-07-24T03:32:31;8.10;;;6.40;;
50161;SDS011;36061;48.116;11.612;2022-07-24T03:34:57;8.97;;;7.23;;
50161;SDS011;36061;48.116;11.612;2022-07-24T03:37:22;7.63;;;6.83;;
50161;SDS011;36061;48.116;11.612;2022-07-24T03:39:48;8.57;;;7.70;;
50161;SDS011;36061;48.116;11.612;2022-07-24T03:42:14;9.53;;;7.17;;
50161;SDS011;36061;48.116;11.612;2022-07-24T03:44:39;9.63;;;7.60;;
50161;SDS011;36061;48.116;11.612;2022-07-24T03:47:06;8.60;;;6.87;;
50161;SDS011;36061;48.116;11.612;2022-07-24T03:49:32;8.33;;;7.43;;
50161;SDS011;36061;48.116;11.612;2022-07-24T03:51:58;7.90;;;7.10;;
50161;SDS011;36061;48.116;11.612;2022-07-24T03:54:23;10.23;;;7.77;;
50161;SDS011;36061;48.116;11.612;2022-07-24T03:56:50;8.57;;;7.30;;
50161;SDS011;36061;48.116;11.612;2022-07-24T03:59:16;9.60;;;6.90;;
50161;SDS011;36061;48.116;11.612;2022-07-24T04:01:41;8.10;;;7.10;;
50161;SDS011;36061;48.116;11.612;2022-07-24T04:04:07;10.00;;;6.97;;
50161;SDS011;36061;48.116;11.612;2022-07-24T04:06:34;8.00;;;7.13;;
50161;SDS011;36061;48.116;11.612;2022-07-24T04:09:01;8.50;;;7.60;;
50161;SDS011;36061;48.116;11.612;2022-07-24T04:11:28;8.53;;;7.00;;
50161;SDS011;36061;48.116;11.612;2022-07-24T04:13:54;9.20;;;7.60;;
50161;SDS011;36061;48.116;11.612;2022-07-24T04:16:20;8.93;;;7.07;;
50161;SDS011;36061;48.116;11.612;2022-07-24T04:18:45;8.10;;;7.23;;
50161;SDS011;36061;48.116;11.612;2022-07-24T04:21:11;8.63;;;7.50;;
50161;SDS011;36061;48.116;11.612;2022-07-24T04:23:37;11.53;;;7.73;;
50161;SDS011;36061;48.116;11.612;2022-07-24T04:26:03;8.57;;;7.67;;
50161;SDS011;36061;48.116;11.612;2022-07-24T04:28:29;8.47;;;7.53;;
50161;SDS011;36061;48.116;11.612;2022-07-24T04:30:55;8.60;;;7.70;;
50161;SDS011;36061;48.116;11.612;2022-07-24T04:33:21;9.23;;;7.43;;
50161;SDS011;36061;48.116;11.612;2022-07-24T04:35:47;9.53;;;8.13;;
50161;SDS011;36061;48.116;11.612;2022-07-24T04:38:13;8.93;;;7.80;;
50161;SDS011;36061;48.116;11.612;2022-07-24T04:40:40;9.63;;;8.03;;
50161;SDS011;36061;48.116;11.612;2022-07-24T04:43:06;9.30;;;8.00;;
50161;SDS011;36061;48.116;11.612;2022-07-24T04:45:32;8.97;;;8.07;;
50161;SDS011;36061;48.116;11.612;2022-07-24T04:47:58;10.17;;;8.10;;
50161;SDS011;36061;48.116;11.612;2022-07-24T04:50:24;10.03;;;8.67;;
50161;SDS011;36061;48.116;11.612;2022-07-24T04:52:53;10.33;;;8.50;;
50161;SDS011;36061;48.116;11.612;2022-07-24T04:55:19;11.07;;;8.60;;
50161;SDS011;36061;48.116;11.612;2022-07-24T04:57:45;10.30;;;8.60;;
50161;SDS011;36061;48.116;11.612;2022-07-24T05:00:11;10.40;;;8.27;;
50161;SDS011;36061;48.116;11.612;2022-07-24T05:02:38;11.50;;;8.73;;
50161;SDS011;36061;48.116;11.612;2022-07-24T05:05:04;12.43;;;8.53;;
50161;SDS011;36061;48.116;11.612;2022-07-24T05:07:31;9.83;;;8.30;;
50161;SDS011;36061;48.116;11.612;2022-07-24T05:09:57;10.33;;;8.07;;
50161;SDS011;36061;48.116;11.612;2022-07-24T05:12:23;10.17;;;8.57;;
50161;SDS011;36061;48.116;11.612;2022-07-24T05:14:49;10.20;;;8.30;;
50161;SDS011;36061;48.116;11.612;2022-07-24T05:17:15;9.37;;;8.37;;
50161;SDS011;36061;48.116;11.612;2022-07-24T05:19:41;10.00;;;8.20;;
50161;SDS011;36061;48.116;11.612;2022-07-24T05:22:07;10.33;;;9.00;;
50161;SDS011;36061;48.116;11.612;2022-07-24T05:24:32;11.10;;;8.77;;
50161;SDS011;36061;48.116;11.612;2022-07-24T05:26:58;11.13;;;8.70;;
50161;SDS011;36061;48.116;11.612;2022-07-24T05:29:24;11.77;;;8.53;;
50161;SDS011;36061;48.116;11.612;2022-07-24T05:31:50;13.37;;;9.07;;
50161;SDS011;36061;48.116;11.612;2022-07-24T05:34:19;10.10;;;8.00;;
50161;SDS011;36061;48.116;11.612;2022-07-24T05:36:46;9.10;;;7.87;;
50161;SDS011;36061;48.116;11.612;2022-07-24T05:39:12;9.37;;;8.37;;
50161;SDS011;36061;48.116;11.612;2022-07-24T05:41:38;10.77;;;9.17;;
50161;SDS011;36061;48.116;11.612;2022-07-24T05:44:04;12.63;;;8.03;;
50161;SDS011;36061;48.116;11.612;2022-07-24T05:46:30;10.17;;;9.07;;
50161;SDS011;36061;48.116;11.612;2022-07-24T05:48:56;10.93;;;8.43;;
50161;SDS011;36061;48.116;11.612;2022-07-24T05:51:22;12.13;;;9.87;;
50161;SDS011;36061;48.116;11.612;2022-07-24T05:53:48;12.67;;;9.80;;
50161;SDS011;36061;48.116;11.612;2022-07-24T05:56:14;11.87;;;9.40;;
50161;SDS011;36061;48.116;11.612;2022-07-24T05:58:39;10.43;;;8.90;;
50161;SDS011;36061;48.116;11.612;2022-07-24T06:01:05;12.87;;;9.90;;
50161;SDS011;36061;48.116;11.612;2022-07-24T06:03:31;13.03;;;8.80;;
50161;SDS011;36061;48.116;11.612;2022-07-24T06:05:57;11.07;;;9.20;;
50161;SDS011;36061;48.116;11.612;2022-07-24T06:08:23;13.60;;;9.23;;
50161;SDS011;36061;48.116;11.612;2022-07-24T06:10:48;14.37;;;8.87;;
50161;SDS011;36061;48.116;11.612;2022-07-24T06:13:14;9.57;;;8.07;;
50161;SDS011;36061;48.116;11.612;2022-07-24T06:15:40;10.37;;;9.10;;
50161;SDS011;36061;48.116;11.612;2022-07-24T06:18:06;10.77;;;8.90;;
50161;SDS011;36061;48.116;11.612;2022-07-24T06:20:31;10.80;;;9.13;;
50161;SDS011;36061;48.116;11.612;2022-07-24T06:22:57;11.03;;;9.40;;
50161;SDS011;36061;48.116;11.612;2022-07-24T06:25:23;10.53;;;8.10;;
50161;SDS011;36061;48.116;11.612;2022-07-24T06:27:49;11.07;;;8.43;;
50161;SDS011;36061;48.116;11.612;2022-07-24T06:30:25;11.10;;;9.13;;
50161;SDS011;36061;48.116;11.612;2022-07-24T06:32:53;11.43;;;9.00;;
50161;SDS011;36061;48.116;11.612;2022-07-24T06:35:23;10.47;;;8.67;;
50161;SDS011;36061;48.116;11.612;2022-07-24T06:37:50;11.37;;;9.53;;
50161;SDS011;36061;48.116;11.612;2022-07-24T06:40:16;11.10;;;8.73;;
50161;SDS011;36061;48.116;11.612;2022-07-24T06:42:44;11.10;;;8.50;;
50161;SDS011;36061;48.116;11.612;2022-07-24T06:45:11;13.63;;;9.80;;
50161;SDS011;36061;48.116;11.612;2022-07-24T06:47:38;9.83;;;8.13;;
50161;SDS011;36061;48.116;11.612;2022-07-24T06:50:04;10.37;;;8.93;;
50161;SDS011;36061;48.116;11.612;2022-07-24T06:52:30;10.00;;;9.00;;
50161;SDS011;36061;48.116;11.612;2022-07-24T06:54:56;11.47;;;9.30;;
50161;SDS011;36061;48.116;11.612;2022-07-24T06:57:22;10.47;;;9.00;;
50161;SDS011;36061;48.116;11.612;2022-07-24T06:59:50;12.27;;;8.10;;
50161;SDS011;36061;48.116;11.612;2022-07-24T07:02:17;11.03;;;7.93;;
50161;SDS011;36061;48.116;11.612;2022-07-24T07:04:44;13.13;;;8.53;;
50161;SDS011;36061;48.116;11.612;2022-07-24T07:07:10;9.73;;;7.77;;
50161;SDS011;36061;48.116;11.612;2022-07-24T07:09:36;10.23;;;7.33;;
50161;SDS011;36061;48.116;11.612;2022-07-24T07:12:03;8.80;;;7.90;;
50161;SDS011;36061;48.116;11.612;2022-07-24T07:14:29;9.17;;;7.37;;
50161;SDS011;36061;48.116;11.612;2022-07-24T07:16:55;8.60;;;7.50;;
50161;SDS011;36061;48.116;11.612;2022-07-24T07:19:21;8.53;;;7.30;;
50161;SDS011;36061;48.116;11.612;2022-07-24T07:21:47;11.93;;;8.33;;
50161;SDS011;36061;48.116;11.612;2022-07-24T07:24:12;11.77;;;8.17;;
50161;SDS011;36061;48.116;11.612;2022-07-24T07:26:38;10.40;;;7.43;;
50161;SDS011;36061;48.116;11.612;2022-07-24T07:29:04;8.80;;;7.53;;
50161;SDS011;36061;48.116;11.612;2022-07-24T07:31:30;7.27;;;6.53;;
50161;SDS011;36061;48.116;11.612;2022-07-24T07:33:55;8.77;;;7.33;;
50161;SDS011;36061;48.116;11.612;2022-07-24T07:36:23;7.70;;;6.80;;
50161;SDS011;36061;48.116;11.612;2022-07-24T07:38:49;11.30;;;7.10;;
50161;SDS011;36061;48.116;11.612;2022-07-24T07:41:15;8.73;;;7.60;;
50161;SDS011;36061;48.116;11.612;2022-07-24T07:43:44;9.43;;;7.10;;
50161;SDS011;36061;48.116;11.612;2022-07-24T07:46:12;7.70;;;6.90;;
50161;SDS011;36061;48.116;11.612;2022-07-24T07:48:39;7.63;;;6.40;;
50161;SDS011;36061;48.116;11.612;2022-07-24T07:51:05;10.17;;;6.90;;
50161;SDS011;36061;48.116;11.612;2022-07-24T07:53:31;8.57;;;6.53;;
50161;SDS011;36061;48.116;11.612;2022-07-24T07:55:57;9.40;;;6.90;;
50161;SDS011;36061;48.116;11.612;2022-07-24T07:58:23;7.67;;;6.53;;
50161;SDS011;36061;48.116;11.612;2022-07-24T08:00:49;7.87;;;6.90;;
50161;SDS011;36061;48.116;11.612;2022-07-24T08:03:15;8.27;;;6.57;;
50161;SDS011;36061;48.116;11.612;2022-07-24T08:05:40;8.40;;;6.23;;
50161;SDS011;36061;48.116;11.612;2022-07-24T08:08:06;7.33;;;6.50;;
50161;SDS011;36061;48.116;11.612;2022-07-24T08:10:32;10.90;;;6.73;;
50161;SDS011;36061;48.116;11.612;2022-07-24T08:12:58;8.70;;;6.33;;
50161;SDS011;36061;48.116;11.612;2022-07-24T08:15:24;8.17;;;6.80;;
50161;SDS011;36061;48.116;11.612;2022-07-24T08:17:53;8.87;;;6.53;;
50161;SDS011;36061;48.116;11.612;2022-07-24T08:20:20;9.83;;;6.47;;
50161;SDS011;36061;48.116;11.612;2022-07-24T08:22:47;8.77;;;6.93;;
50161;SDS011;36061;48.116;11.612;2022-07-24T08:25:13;8.47;;;6.67;;
50161;SDS011;36061;48.116;11.612;2022-07-24T08:27:39;7.13;;;6.13;;
50161;SDS011;36061;48.116;11.612;2022-07-24T08:30:05;6.97;;;5.90;;
50161;SDS011;36061;48.116;11.612;2022-07-24T08:32:32;6.73;;;6.03;;
50161;SDS011;36061;48.116;11.612;2022-07-24T08:34:58;9.37;;;6.17;;
50161;SDS011;36061;48.116;11.612;2022-07-24T08:37:23;9.07;;;6.97;;
50161;SDS011;36061;48.116;11.612;2022-07-24T08:39:49;9.00;;;5.77;;
50161;SDS011;36061;48.116;11.612;2022-07-24T08:42:15;8.83;;;6.07;;
50161;SDS011;36061;48.116;11.612;2022-07-24T08:44:41;8.60;;;6.27;;
50161;SDS011;36061;48.116;11.612;2022-07-24T08:47:07;7.70;;;6.67;;
50161;SDS011;36061;48.116;11.612;2022-07-24T08:49:36;7.37;;;6.43;;
50161;SDS011;36061;48.116;11.612;2022-07-24T08:52:04;7.10;;;6.37;;
50161;SDS011;36061;48.116;11.612;2022-07-24T08:54:34;9.27;;;6.43;;
50161;SDS011;36061;48.116;11.612;2022-07-24T08:57:01;6.77;;;6.07;;
50161;SDS011;36061;48.116;11.612;2022-07-24T08:59:28;7.63;;;6.87;;
50161;SDS011;36061;48.116;11.612;2022-07-24T09:01:54;8.23;;;6.63;;
50161;SDS011;36061;48.116;11.612;2022-07-24T09:07:09;7.33;;;6.47;;
50161;SDS011;36061;48.116;11.612;2022-07-24T09:09:37;8.70;;;7.00;;
50161;SDS011;36061;48.116;11.612;2022-07-24T09:14:38;7.63;;;6.43;;
50161;SDS011;36061;48.116;11.612;2022-07-24T09:22:40;9.33;;;6.60;;
50161;SDS011;36061;48.116;11.612;2022-07-24T09:30:20;8.27;;;6.40;;
50161;SDS011;36061;48.116;11.612;2022-07-24T09:32:55;7.33;;;6.57;;
50161;SDS011;36061;48.116;11.612;2022-07-24T09:35:29;9.37;;;6.83;;
50161;SDS011;36061;48.116;11.612;2022-07-24T09:38:03;10.17;;;6.93;;
50161;SDS011;36061;48.116;11.612;2022-07-24T09:40:34;8.13;;;7.20;;
50161;SDS011;36061;48.116;11.612;2022-07-24T09:43:47;7.37;;;6.30;;
50161;SDS011;36061;48.116;11.612;2022-07-24T09:48:23;7.80;;;6.27;;
50161;SDS011;36061;48.116;11.612;2022-07-24T09:50:55;8.07;;;6.37;;
50161;SDS011;36061;48.116;11.612;2022-07-24T09:53:27;7.63;;;6.27;;
50161;SDS011;36061;48.116;11.612;2022-07-24T09:56:10;9.27;;;6.20;;
50161;SDS011;36061;48.116;11.612;2022-07-24T09:58:47;7.70;;;6.60;;
50161;SDS011;36061;48.116;11.612;2022-07-24T10:01:14;7.20;;;6.20;;
50161;SDS011;36061;48.116;11.612;2022-07-24T10:03:43;10.63;;;6.47;;
50161;SDS011;36061;48.116;11.612;2022-07-24T10:06:10;12.87;;;6.83;;
50161;SDS011;36061;48.116;11.612;2022-07-24T10:08:39;9.37;;;7.03;;
50161;SDS011;36061;48.116;11.612;2022-07-24T10:11:06;7.30;;;6.60;;
50161;SDS011;36061;48.116;11.612;2022-07-24T10:13:32;7.23;;;5.70;;
50161;SDS011;36061;48.116;11.612;2022-07-24T10:21:21;6.90;;;6.20;;
50161;SDS011;36061;48.116;11.612;2022-07-24T10:31:49;10.40;;;6.50;;
50161;SDS011;36061;48.116;11.612;2022-07-24T10:34:20;8.27;;;6.00;;
50161;SDS011;36061;48.116;11.612;2022-07-24T10:40:02;8.23;;;6.70;;
50161;SDS011;36061;48.116;11.612;2022-07-24T10:42:28;7.40;;;6.70;;
50161;SDS011;36061;48.116;11.612;2022-07-24T10:47:44;7.83;;;6.53;;
50161;SDS011;36061;48.116;11.612;2022-07-24T10:50:11;7.73;;;5.70;;
50161;SDS011;36061;48.116;11.612;2022-07-24T10:52:39;6.97;;;6.17;;
50161;SDS011;36061;48.116;11.612;2022-07-24T11:00:35;7.73;;;6.07;;
50161;SDS011;36061;48.116;11.612;2022-07-24T11:03:25;9.53;;;6.20;;
50161;SDS011;36061;48.116;11.612;2022-07-24T11:06:05;7.00;;;6.07;;
50161;SDS011;36061;48.116;11.612;2022-07-24T11:11:12;6.50;;;5.63;;
50161;SDS011;36061;48.116;11.612;2022-07-24T11:13:42;7.83;;;6.70;;
50161;SDS011;36061;48.116;11.612;2022-07-24T11:18:38;6.33;;;5.73;;
50161;SDS011;36061;48.116;11.612;2022-07-24T11:29:14;7.40;;;6.33;;
50161;SDS011;36061;48.116;11.612;2022-07-24T11:31:43;6.47;;;5.87;;
50161;SDS011;36061;48.116;11.612;2022-07-24T11:34:11;6.63;;;5.40;;
50161;SDS011;36061;48.116;11.612;2022-07-24T11:36:42;6.90;;;5.53;;
50161;SDS011;36061;48.116;11.612;2022-07-24T11:39:13;6.70;;;5.90;;
50161;SDS011;36061;48.116;11.612;2022-07-24T11:41:45;6.83;;;6.13;;
50161;SDS011;36061;48.116;11.612;2022-07-24T11:44:12;9.83;;;6.53;;
50161;SDS011;36061;48.116;11.612;2022-07-24T11:46:39;7.53;;;6.00;;
50161;SDS011;36061;48.116;11.612;2022-07-24T11:49:08;7.67;;;6.30;;
50161;SDS011;36061;48.116;11.612;2022-07-24T11:52:08;6.20;;;5.60;;
50161;SDS011;36061;48.116;11.612;2022-07-24T11:54:27;7.17;;;5.83;;
50161;SDS011;36061;48.116;11.612;2022-07-24T11:56:54;7.67;;;6.13;;
50161;SDS011;36061;48.116;11.612;2022-07-24T11:59:28;6.60;;;6.00;;
50161;SDS011;36061;48.116;11.612;2022-07-24T12:02:05;6.47;;;5.30;;
50161;SDS011;36061;48.116;11.612;2022-07-24T12:04:32;6.67;;;5.97;;
50161;SDS011;36061;48.116;11.612;2022-07-24T12:06:59;6.97;;;6.23;;
50161;SDS011;36061;48.116;11.612;2022-07-24T12:09:25;6.93;;;5.97;;
50161;SDS011;36061;48.116;11.612;2022-07-24T12:11:51;7.60;;;6.80;;
50161;SDS011;36061;48.116;11.612;2022-07-24T12:14:19;7.60;;;5.80;;
50161;SDS011;36061;48.116;11.612;2022-07-24T12:16:52;6.17;;;5.57;;
50161;SDS011;36061;48.116;11.612;2022-07-24T12:19:21;7.53;;;6.40;;
50161;SDS011;36061;48.116;11.612;2022-07-24T12:21:49;6.77;;;6.07;;
50161;SDS011;36061;48.116;11.612;2022-07-24T12:24:16;7.13;;;6.03;;
50161;SDS011;36061;48.116;11.612;2022-07-24T12:26:50;7.00;;;6.17;;
50161;SDS011;36061;48.116;11.612;2022-07-24T12:29:17;7.00;;;6.10;;
50161;SDS011;36061;48.116;11.612;2022-07-24T12:31:44;6.27;;;5.67;;
50161;SDS011;36061;48.116;11.612;2022-07-24T12:34:10;7.20;;;6.20;;
50161;SDS011;36061;48.116;11.612;2022-07-24T12:36:36;8.50;;;7.33;;
50161;SDS011;36061;48.116;11.612;2022-07-24T12:39:03;6.60;;;5.90;;
50161;SDS011;36061;48.116;11.612;2022-07-24T12:41:30;7.27;;;6.57;;
50161;SDS011;36061;48.116;11.612;2022-07-24T12:46:24;7.93;;;6.60;;
50161;SDS011;36061;48.116;11.612;2022-07-24T12:54:45;6.73;;;6.10;;
50161;SDS011;36061;48.116;11.612;2022-07-24T12:57:12;6.50;;;5.80;;
50161;SDS011;36061;48.116;11.612;2022-07-24T12:59:39;8.57;;;5.73;;
50161;SDS011;36061;48.116;11.612;2022-07-24T13:02:07;6.40;;;5.80;;
50161;SDS011;36061;48.116;11.612;2022-07-24T13:04:42;6.70;;;6.07;;
50161;SDS011;36061;48.116;11.612;2022-07-24T13:07:15;7.47;;;5.40;;
50161;SDS011;36061;48.116;11.612;2022-07-24T13:09:43;7.63;;;5.83;;
50161;SDS011;36061;48.116;11.612;2022-07-24T13:12:09;6.03;;;5.43;;
50161;SDS011;36061;48.116;11.612;2022-07-24T13:14:36;6.53;;;5.93;;
50161;SDS011;36061;48.116;11.612;2022-07-24T13:17:04;7.83;;;6.43;;
50161;SDS011;36061;48.116;11.612;2022-07-24T13:19:33;6.87;;;6.17;;
50161;SDS011;36061;48.116;11.612;2022-07-24T13:21:59;6.40;;;5.80;;
50161;SDS011;36061;48.116;11.612;2022-07-24T13:24:25;7.23;;;5.93;;
50161;SDS011;36061;48.116;11.612;2022-07-24T13:26:51;8.10;;;6.07;;
50161;SDS011;36061;48.116;11.612;2022-07-24T13:29:17;7.30;;;6.03;;
50161;SDS011;36061;48.116;11.612;2022-07-24T13:31:43;7.63;;;5.73;;
50161;SDS011;36061;48.116;11.612;2022-07-24T13:34:09;7.20;;;6.27;;
50161;SDS011;36061;48.116;11.612;2022-07-24T13:36:35;6.27;;;5.60;;
50161;SDS011;36061;48.116;11.612;2022-07-24T13:39:03;8.33;;;5.80;;
50161;SDS011;36061;48.116;11.612;2022-07-24T13:41:30;6.10;;;5.47;;
50161;SDS011;36061;48.116;11.612;2022-07-24T13:43:56;7.23;;;5.83;;
50161;SDS011;36061;48.116;11.612;2022-07-24T13:46:21;8.17;;;5.87;;
50161;SDS011;36061;48.116;11.612;2022-07-24T13:48:47;6.67;;;6.07;;
50161;SDS011;36061;48.116;11.612;2022-07-24T13:51:13;6.90;;;6.20;;
50161;SDS011;36061;48.116;11.612;2022-07-24T13:53:39;6.37;;;5.43;;
50161;SDS011;36061;48.116;11.612;2022-07-24T13:56:06;6.80;;;6.13;;
50161;SDS011;36061;48.116;11.612;2022-07-24T13:58:32;6.90;;;5.87;;
50161;SDS011;36061;48.116;11.612;2022-07-24T14:01:04;6.67;;;5.70;;
50161;SDS011;36061;48.116;11.612;2022-07-24T14:03:30;7.37;;;5.70;;
50161;SDS011;36061;48.116;11.612;2022-07-24T14:05:57;7.03;;;5.50;;
50161;SDS011;36061;48.116;11.612;2022-07-24T14:08:23;6.87;;;5.70;;
50161;SDS011;36061;48.116;11.612;2022-07-24T14:10:49;7.00;;;5.57;;
50161;SDS011;36061;48.116;11.612;2022-07-24T14:13:15;6.87;;;6.00;;
50161;SDS011;36061;48.116;11.612;2022-07-24T14:15:41;6.65;;;5.53;;
50161;SDS011;36061;48.116;11.612;2022-07-24T14:18:07;7.53;;;5.77;;
50161;SDS011;36061;48.116;11.612;2022-07-24T14:20:33;6.37;;;5.60;;
50161;SDS011;36061;48.116;11.612;2022-07-24T14:22:59;7.83;;;6.00;;
50161;SDS011;36061;48.116;11.612;2022-07-24T14:25:24;8.30;;;6.80;;
50161;SDS011;36061;48.116;11.612;2022-07-24T14:27:50;6.80;;;6.13;;
50161;SDS011;36061;48.116;11.612;2022-07-24T14:30:16;6.67;;;5.67;;
50161;SDS011;36061;48.116;11.612;2022-07-24T14:32:42;9.97;;;6.20;;
50161;SDS011;36061;48.116;11.612;2022-07-24T14:35:08;6.30;;;5.70;;
50161;SDS011;36061;48.116;11.612;2022-07-24T14:37:34;6.53;;;5.87;;
50161;SDS011;36061;48.116;11.612;2022-07-24T14:40:02;7.57;;;5.17;;
50161;SDS011;36061;48.116;11.612;2022-07-24T14:42:29;6.37;;;5.77;;
50161;SDS011;36061;48.116;11.612;2022-07-24T14:44:55;8.97;;;5.30;;
50161;SDS011;36061;48.116;11.612;2022-07-24T14:47:20;6.40;;;5.70;;
50161;SDS011;36061;48.116;11.612;2022-07-24T14:49:46;8.00;;;5.40;;
50161;SDS011;36061;48.116;11.612;2022-07-24T14:52:12;6.67;;;5.70;;
50161;SDS011;36061;48.116;11.612;2022-07-24T14:54:38;7.20;;;5.77;;
50161;SDS011;36061;48.116;11.612;2022-07-24T14:57:04;6.10;;;5.30;;
50161;SDS011;36061;48.116;11.612;2022-07-24T14:59:32;7.67;;;5.90;;
50161;SDS011;36061;48.116;11.612;2022-07-24T15:01:58;6.27;;;5.67;;
50161;SDS011;36061;48.116;11.612;2022-07-24T15:04:23;7.90;;;5.50;;
50161;SDS011;36061;48.116;11.612;2022-07-24T15:06:49;7.80;;;5.70;;
50161;SDS011;36061;48.116;11.612;2022-07-24T15:09:15;7.80;;;6.17;;
50161;SDS011;36061;48.116;11.612;2022-07-24T15:11:41;6.13;;;5.53;;
50161;SDS011;36061;48.116;11.612;2022-07-24T15:14:06;5.73;;;5.13;;
50161;SDS011;36061;48.116;11.612;2022-07-24T15:16:32;6.60;;;5.97;;
50161;SDS011;36061;48.116;11.612;2022-07-24T15:18:58;6.17;;;5.57;;
50161;SDS011;36061;48.116;11.612;2022-07-24T15:21:24;6.30;;;5.67;;
50161;SDS011;36061;48.116;11.612;2022-07-24T15:23:49;6.40;;;5.40;;
50161;SDS011;36061;48.116;11.612;2022-07-24T15:26:15;7.93;;;5.83;;
50161;SDS011;36061;48.116;11.612;2022-07-24T15:28:41;6.00;;;5.40;;
50161;SDS011;36061;48.116;11.612;2022-07-24T15:31:07;7.00;;;5.65;;
50161;SDS011;36061;48.116;11.612;2022-07-24T15:33:32;5.72;;;5.13;;